ICAO code: LHPR | IATA code: QGY | SITA: QGYAPXH | AFTN: LHPRZPZX

Időjárási adatok

METAR LHPR 250245Z AUTO VRB02KT 9000 OVC043 16/14 Q1011=
TAF LHPR 250215Z 2503/2512 VRB04KT 9999 BKN035
BECMG 2508/2510 31007KT=
Párásság
2022-05-25 02:40:00 UTC
Hőmérséklet
15.9 °C
 
Harmatpont
14.3 °C
 
Rel. páratartalom
90%
 
QNH
1011.7 hPa
 
Szélsebesség
1.0 m/s
Max
1.6 m/s
Szélirány
360°
 
Csapadék (1 óra)
0.0 mm
 
Látótávolság
8528 m
 
RVR
>1500 m RWY29
 
1. felhőréteg mennyisége
8 octa
 
1. felhőréteg alapja
1300 m